createdAt,value
2019-03-21T01:45:01.114Z,0.00
2019-03-21T06:55:01.083Z,0.42
2019-03-21T07:00:01.355Z,0.50
2019-03-21T07:05:01.076Z,0.10
2019-03-21T07:10:03.169Z,0.27
2019-03-21T07:15:01.151Z,0.16
2019-03-21T07:20:01.058Z,0.37
2019-03-21T07:25:01.063Z,0.22
2019-03-21T07:30:01.071Z,0.47
2019-03-21T07:35:01.374Z,0.34
2019-03-21T07:40:01.072Z,0.32
2019-03-21T07:45:01.430Z,0.61
2019-03-21T07:50:01.053Z,0.94
2019-03-21T07:55:01.075Z,0.88
2019-03-21T08:00:01.073Z,0.81
2019-03-21T08:05:01.054Z,0.95
2019-03-21T08:10:01.093Z,0.99
2019-03-21T08:15:01.070Z,0.65
2019-03-21T08:20:01.728Z,1.15
2019-03-21T08:25:01.102Z,1.64
2019-03-21T08:30:01.143Z,1.07
2019-03-21T08:35:01.540Z,1.86
2019-03-21T08:40:01.112Z,1.98
2019-03-21T08:45:01.121Z,1.69
2019-03-21T08:50:01.084Z,2.08
2019-03-21T08:55:01.487Z,2.28
2019-03-21T09:00:01.111Z,1.98
2019-03-21T09:05:01.083Z,1.43
2019-03-21T09:10:01.107Z,1.13
2019-03-21T09:15:01.387Z,1.53
2019-03-21T09:20:01.060Z,2.11
2019-03-21T09:25:01.099Z,1.20
2019-03-21T09:30:01.082Z,2.09
2019-03-21T09:35:01.097Z,1.66
2019-03-21T09:40:01.219Z,1.79
2019-03-21T09:45:01.074Z,1.89
2019-03-21T09:50:01.378Z,1.75
2019-03-21T09:55:01.082Z,0.93
2019-03-21T10:00:01.074Z,0.65
2019-03-21T10:05:01.373Z,1.52
2019-03-21T10:10:01.132Z,1.92
2019-03-21T10:15:01.117Z,2.87
2019-03-21T10:20:01.068Z,1.80
2019-03-21T10:25:01.128Z,1.13
2019-03-21T10:30:01.070Z,2.76
2019-03-21T11:20:01.099Z,4.42
2019-03-21T11:25:01.280Z,2.40
2019-03-21T11:30:01.089Z,2.87
2019-03-21T11:35:01.291Z,3.37
2019-03-21T11:40:01.105Z,2.06
2019-03-21T11:45:02.451Z,2.25
2019-03-21T11:50:02.670Z,2.53
2019-03-21T11:55:01.172Z,2.12
2019-03-21T12:00:01.458Z,1.48
2019-03-21T12:05:01.270Z,2.19
2019-03-21T12:10:01.133Z,1.90
2019-03-21T12:15:01.412Z,2.00
2019-03-21T12:20:01.160Z,1.81
2019-03-21T12:25:01.186Z,1.62
2019-03-21T12:30:01.715Z,1.26
2019-03-21T12:35:01.223Z,3.70
2019-03-21T12:40:01.391Z,1.78
2019-03-21T12:45:01.598Z,1.75
2019-03-21T12:50:06.165Z,2.31
2019-03-21T12:55:01.171Z,3.05
2019-03-21T13:00:05.481Z,2.35
2019-03-21T13:05:01.158Z,1.67
2019-03-21T13:10:01.144Z,1.08
2019-03-21T13:15:01.166Z,0.86
2019-03-21T13:20:01.440Z,1.64
2019-03-21T13:25:01.106Z,2.25
2019-03-21T13:30:03.585Z,2.42
2019-03-21T13:35:01.090Z,2.56
2019-03-21T13:40:01.078Z,2.78
2019-03-21T13:45:01.427Z,1.92
2019-03-21T13:50:01.175Z,2.00
2019-03-21T13:55:01.165Z,1.88
2019-03-21T14:00:01.166Z,1.60
2019-03-21T14:05:01.887Z,2.47
2019-03-21T14:10:01.129Z,1.44
2019-03-21T14:15:01.240Z,2.29
2019-03-21T14:20:01.128Z,3.32
2019-03-21T14:25:01.681Z,3.55
2019-03-21T14:30:02.084Z,2.57
2019-03-21T14:35:01.524Z,2.34
2019-03-21T14:40:01.423Z,2.53
2019-03-21T14:45:01.510Z,3.01
2019-03-21T14:50:01.551Z,2.36
2019-03-21T14:55:01.072Z,1.11
2019-03-21T15:00:01.451Z,1.85
2019-03-21T15:05:01.096Z,1.53
2019-03-21T15:10:01.127Z,0.52
2019-03-21T15:15:01.124Z,1.53
2019-03-21T15:20:01.172Z,1.71
2019-03-21T15:25:01.103Z,1.39
2019-03-21T15:30:01.243Z,1.04
2019-03-21T15:35:01.108Z,1.50
2019-03-21T15:40:01.101Z,2.19
2019-03-21T15:45:15.764Z,2.15
2019-03-21T15:50:01.113Z,2.72
2019-03-21T15:55:01.713Z,1.89
2019-03-21T16:00:01.157Z,1.77
2019-03-21T16:05:01.654Z,1.84
2019-03-21T16:10:01.687Z,2.19
2019-03-21T16:15:01.052Z,1.34
2019-03-21T16:20:01.104Z,1.81
2019-03-21T16:25:01.532Z,1.44
2019-03-21T16:30:01.151Z,0.37
2019-03-21T16:35:01.084Z,0.24
2019-03-21T16:40:01.134Z,0.62
2019-03-21T16:45:01.109Z,1.10
2019-03-21T16:50:01.068Z,1.01
2019-03-21T16:55:01.501Z,1.46
2019-03-21T17:00:01.090Z,1.12
2019-03-21T17:05:01.579Z,1.40
2019-03-21T17:10:01.880Z,1.51
2019-03-21T17:15:01.562Z,1.52
2019-03-21T17:20:03.729Z,1.87
2019-03-21T17:25:01.587Z,1.92
2019-03-21T17:30:03.446Z,1.94
2019-03-21T17:35:01.748Z,1.82
2019-03-21T17:40:01.792Z,1.27
2019-03-21T17:45:01.392Z,1.12
2019-03-21T17:50:01.956Z,0.83
2019-03-21T17:55:05.018Z,0.98
2019-03-21T18:00:01.290Z,1.33
2019-03-21T18:05:01.541Z,1.01
2019-03-21T18:10:01.629Z,1.25
2019-03-21T18:15:01.989Z,1.57
2019-03-21T18:20:01.298Z,1.33
2019-03-21T18:25:01.485Z,1.43
2019-03-21T18:30:01.125Z,1.36
2019-03-21T18:35:02.980Z,0.92
2019-03-21T18:40:01.048Z,0.46
2019-03-21T18:45:01.236Z,0.66
2019-03-21T18:50:01.080Z,0.80
2019-03-21T18:55:06.689Z,1.15
2019-03-21T19:00:01.564Z,1.21
2019-03-21T19:05:01.091Z,0.81
2019-03-21T19:10:01.736Z,0.66
2019-03-21T19:15:01.178Z,0.97
2019-03-21T19:20:01.080Z,1.03
2019-03-21T19:25:01.467Z,0.69
2019-03-21T19:30:01.209Z,1.01
2019-03-21T19:35:01.244Z,0.60
2019-03-21T19:40:01.219Z,1.01
2019-03-21T19:45:01.212Z,0.85
2019-03-21T19:50:01.078Z,0.70
2019-03-21T19:55:01.810Z,0.97
2019-03-21T20:00:01.515Z,0.96
2019-03-21T20:05:01.313Z,0.88
2019-03-21T20:10:01.237Z,0.73
2019-03-21T20:15:01.457Z,0.96
2019-03-21T20:20:01.601Z,1.03
2019-03-21T20:25:02.469Z,0.65
2019-03-21T20:30:01.184Z,1.10
2019-03-21T20:35:01.696Z,0.21
2019-03-21T20:40:01.179Z,0.26
2019-03-21T20:45:02.604Z,0.52
2019-03-21T20:50:01.714Z,0.27
2019-03-21T20:55:02.754Z,0.77
2019-03-21T21:00:03.837Z,0.47
2019-03-21T21:05:01.293Z,0.58
2019-03-21T21:10:04.530Z,0.39
2019-03-21T21:15:01.090Z,0.20
2019-03-21T21:20:01.452Z,0.41
2019-03-21T21:25:03.684Z,0.73
2019-03-21T21:30:03.997Z,0.40
2019-03-21T21:35:02.798Z,0.16
2019-03-21T21:40:01.217Z,0.21
2019-03-21T21:45:01.430Z,0.31
2019-03-21T21:50:01.230Z,0.26
2019-03-21T21:55:01.617Z,0.37
2019-03-21T22:00:01.079Z,0.48
2019-03-21T22:05:01.215Z,0.38
2019-03-21T22:10:01.070Z,0.31
2019-03-21T22:15:01.202Z,1.10
2019-03-21T22:20:01.201Z,0.53
2019-03-21T22:25:01.358Z,0.43
2019-03-21T22:30:04.227Z,0.11
2019-03-21T22:35:01.134Z,0.77
2019-03-21T22:40:01.089Z,0.61
2019-03-21T22:45:01.128Z,0.71
2019-03-21T22:50:01.134Z,0.59
2019-03-21T22:55:01.243Z,0.35
2019-03-21T23:00:01.179Z,0.34
2019-03-21T23:05:01.067Z,0.23
2019-03-21T23:10:01.185Z,0.56
2019-03-21T23:15:01.070Z,0.15
2019-03-21T23:20:01.084Z,0.02
2019-03-21T23:25:01.141Z,0.23
2019-03-21T23:30:01.105Z,0.09
2019-03-21T23:35:01.084Z,0.69
2019-03-21T23:40:01.110Z,0.22
2019-03-21T23:45:01.071Z,0.44
2019-03-21T23:50:01.057Z,0.68
2019-03-21T23:55:01.140Z,0.22
